Time;durP1;ratioP1;P1;durP2;ratioP2;P2;SDS_P1;SDS_P2;PMS_P1;PMS_P2;Temp;Humidity;BMP_temperature;BMP_pressure;BME280_temperature;BME280_humidity;BME280_pressure;Samples;Min_cycle;Max_cycle;Signal;HPM_P1;HPM_P2
2023/06/22 00:02:17;;;;;;;17.65;15.85;;;25.90;63.40;;;;;;3956868;29;20150;-58
2023/06/22 00:05:01;;;;;;;15.77;14.18;;;25.90;63.50;;;;;;3961498;29;20074;-58
2023/06/22 00:07:43;;;;;;;16.05;14.48;;;25.90;63.60;;;;;;3971533;29;20065;-58
2023/06/22 00:10:24;;;;;;;;;;;25.90;63.60;;;;;;3972355;29;20197;-58
2023/06/22 00:16:10;;;;;;;11.18;10.07;;;25.90;63.70;;;;;;3956601;29;20058;-58
2023/06/22 00:18:54;;;;;;;10.43;9.55;;;25.80;63.50;;;;;;3966694;29;20071;-58
2023/06/22 00:21:37;;;;;;;11.77;10.77;;;25.80;63.30;;;;;;3971936;29;20150;-59
2023/06/22 00:24:20;;;;;;;9.80;8.90;;;25.80;63.30;;;;;;3971788;29;20123;-58
2023/06/22 00:27:05;;;;;;;9.00;8.30;;;25.80;63.30;;;;;;3971902;29;20184;-58
2023/06/22 00:29:47;;;;;;;9.73;8.95;;;25.80;63.20;;;;;;3956316;29;20066;-57
2023/06/22 00:32:29;;;;;;;10.38;9.38;;;25.80;63.20;;;;;;3956973;29;20444;-57
2023/06/22 00:35:15;;;;;;;12.02;10.95;;;25.80;63.10;;;;;;3964157;29;20045;-57
2023/06/22 00:38:00;;;;;;;13.15;11.90;;;25.70;62.80;;;;;;3960626;29;20183;-59
2023/06/22 00:40:49;;;;;;;15.98;14.38;;;25.70;62.90;;;;;;3970654;29;20054;-58
2023/06/22 00:43:34;;;;;;;15.68;14.15;;;25.70;63.10;;;;;;3970868;29;20091;-58
2023/06/22 00:46:32;;;;;;;16.08;14.30;;;25.70;63.20;;;;;;3955306;29;20415;-57
2023/06/22 00:49:22;;;;;;;13.57;12.27;;;25.60;63.20;;;;;;3956567;29;20192;-57
2023/06/22 00:52:20;;;;;;;15.02;13.52;;;25.70;63.20;;;;;;3966059;29;20062;-58
2023/06/22 00:55:13;;;;;;;14.35;12.85;;;25.60;63.10;;;;;;3965200;29;20058;-58
2023/06/22 00:58:02;;;;;;;11.43;10.43;;;25.60;63.10;;;;;;3955936;29;20206;-57
2023/06/22 01:01:00;;;;;;;12.07;10.98;;;25.60;63.30;;;;;;3971416;29;20070;-59
2023/06/22 01:03:45;;;;;;;13.10;11.80;;;25.60;63.40;;;;;;3970855;29;20135;-60
2023/06/22 01:06:41;;;;;;;13.40;12.13;;;25.60;63.50;;;;;;3971012;29;20487;-57
2023/06/22 01:09:36;;;;;;;13.10;11.80;;;25.60;63.40;;;;;;3970668;29;20053;-57
2023/06/22 01:12:21;;;;;;;15.77;14.10;;;25.60;63.30;;;;;;3967450;29;20514;-56
2023/06/22 01:15:12;;;;;;;16.33;14.07;;;25.60;63.30;;;;;;3965100;29;20058;-57
2023/06/22 01:17:58;;;;;;;16.17;14.55;;;25.60;63.20;;;;;;3954239;29;20053;-58
2023/06/22 01:20:45;;;;;;;15.77;13.68;;;25.60;63.30;;;;;;3956369;29;20139;-58
2023/06/22 01:23:48;;;;;;;15.63;13.95;;;25.60;63.30;;;;;;3956312;29;20058;-58
2023/06/22 01:26:58;;;;;;;14.25;12.93;;;25.50;62.90;;;;;;3955581;29;20165;-58
2023/06/22 01:29:47;;;;;;;13.48;12.27;;;25.50;63.70;;;;;;3969529;29;20050;-58
2023/06/22 01:32:35;;;;;;;15.52;13.68;;;25.50;63.40;;;;;;3971125;29;20065;-58
2023/06/22 01:35:26;;;;;;;16.20;14.60;;;25.50;63.40;;;;;;3970981;29;20062;-57
2023/06/22 01:38:18;;;;;;;15.90;14.20;;;25.50;63.30;;;;;;3969376;29;20078;-57
2023/06/22 01:41:03;;;;;;;15.85;14.25;;;25.50;63.20;;;;;;3970633;29;20054;-58
2023/06/22 01:43:47;;;;;;;15.15;13.50;;;25.40;63.10;;;;;;3949322;29;20414;-59
2023/06/22 01:46:38;;;;;;;22.55;14.65;;;25.40;63.10;;;;;;3969462;29;20093;-58
2023/06/22 01:49:29;;;;;;;14.57;12.80;;;25.40;63.00;;;;;;3955682;29;20111;-58
2023/06/22 01:52:18;;;;;;;13.35;12.00;;;25.40;63.10;;;;;;3968863;29;20075;-58
2023/06/22 01:55:05;;;;;;;13.55;12.20;;;25.40;63.30;;;;;;3971207;29;20539;-58
2023/06/22 02:00:59;;;;;;;15.38;13.77;;;25.30;63.00;;;;;;3969954;29;20567;-58
2023/06/22 02:04:11;;;;;;;15.80;14.30;;;25.30;62.70;;;;;;3959686;29;20398;-58
2023/06/22 02:07:15;;;;;;;15.88;14.27;;;25.30;62.50;;;;;;3969757;29;20089;-58
2023/06/22 02:10:00;;;;;;;;;;;25.30;62.80;;;;;;3971495;29;20505;-57
2023/06/22 02:12:52;;;;;;;15.70;14.13;;;25.30;63.00;;;;;;3970569;29;20017;-58
2023/06/22 02:15:43;;;;;;;14.50;13.10;;;25.30;63.10;;;;;;3969344;29;20061;-58
2023/06/22 02:18:40;;;;;;;15.02;13.63;;;25.20;63.00;;;;;;3970455;29;20119;-57
2023/06/22 02:21:21;;;;;;;14.38;13.13;;;25.20;63.10;;;;;;3979842;29;20192;-58
2023/06/22 02:27:19;;;;;;;14.38;13.07;;;25.20;63.00;;;;;;3969920;29;20526;-58
2023/06/22 02:30:30;;;;;;;16.13;14.63;;;25.20;63.90;;;;;;3970237;29;20054;-60
2023/06/22 02:33:14;;;;;;;16.50;14.90;;;25.20;63.90;;;;;;3970346;29;20074;-60
2023/06/22 02:35:59;;;;;;;15.32;13.90;;;25.10;63.10;;;;;;3970359;29;20077;-61
2023/06/22 02:38:52;;;;;;;14.80;13.40;;;25.10;63.20;;;;;;3968176;29;20062;-61
2023/06/22 02:42:20;;;;;;;17.77;14.73;;;25.10;63.10;;;;;;3969491;29;20081;-60
2023/06/22 02:45:08;;;;;;;16.63;14.95;;;25.10;63.20;;;;;;3969127;29;20128;-60
2023/06/22 02:47:56;;;;;;;17.17;15.45;;;25.10;63.30;;;;;;3968708;29;20066;-62
2023/06/22 02:50:41;;;;;;;18.05;16.35;;;25.10;63.30;;;;;;3970350;29;20094;-61
2023/06/22 02:53:28;;;;;;;18.02;16.10;;;25.00;63.30;;;;;;3969195;29;20066;-61
2023/06/22 02:56:27;;;;;;;17.77;15.93;;;25.00;63.30;;;;;;3969767;29;20567;-60
2023/06/22 02:59:32;;;;;;;18.77;16.70;;;25.00;63.40;;;;;;3953855;29;20156;-59
2023/06/22 03:02:24;;;;;;;20.48;18.33;;;25.00;63.40;;;;;;3954468;29;20054;-59
2023/06/22 03:05:13;;;;;;;20.13;18.13;;;25.00;63.50;;;;;;3946597;29;20112;-59
2023/06/22 03:07:57;;;;;;;20.48;18.27;;;25.00;63.60;;;;;;3968856;29;20053;-62
2023/06/22 03:11:03;;;;;;;20.60;18.20;;;25.00;63.70;;;;;;3946655;29;20058;-61
2023/06/22 03:13:52;;;;;;;20.52;18.33;;;25.00;63.70;;;;;;3956792;29;20594;-62
2023/06/22 03:16:40;;;;;;;18.20;16.42;;;25.00;64.80;;;;;;3970891;29;20061;-62
2023/06/22 03:19:28;;;;;;;19.85;17.75;;;25.00;63.90;;;;;;3957476;29;20102;-60
2023/06/22 03:22:10;;;;;;;18.98;17.17;;;25.00;63.90;;;;;;3956926;29;20629;-60
2023/06/22 03:24:56;;;;;;;19.63;17.85;;;25.00;63.80;;;;;;3971474;29;20135;-60
2023/06/22 03:27:39;;;;;;;20.25;18.23;;;25.00;63.80;;;;;;3972549;29;20568;-61
2023/06/22 03:30:24;;;;;;;19.75;17.65;;;24.90;64.60;;;;;;3957471;29;20115;-60
2023/06/22 03:33:09;;;;;;;20.63;18.52;;;24.90;63.70;;;;;;3957564;29;20078;-61
2023/06/22 03:35:52;;;;;;;19.45;17.45;;;24.90;63.70;;;;;;3957668;29;20054;-62
2023/06/22 03:38:35;;;;;;;19.58;17.67;;;24.90;63.70;;;;;;3961350;29;20046;-60
2023/06/22 03:41:25;;;;;;;20.08;17.98;;;24.90;63.70;;;;;;3961597;29;20126;-60
2023/06/22 03:47:24;;;;;;;22.25;19.52;;;24.90;63.70;;;;;;3971237;29;20085;-59
2023/06/22 03:50:08;;;;;;;20.73;18.63;;;24.90;63.80;;;;;;3961613;29;20058;-59
2023/06/22 03:52:53;;;;;;;20.10;18.05;;;24.80;63.60;;;;;;3972117;29;20054;-59
2023/06/22 03:55:35;;;;;;;16.40;14.85;;;24.80;63.60;;;;;;3957278;29;20188;-60
2023/06/22 03:58:20;;;;;;;17.05;15.35;;;24.80;63.80;;;;;;3967882;29;20119;-59
2023/06/22 04:01:02;;;;;;;17.83;16.02;;;24.80;64.10;;;;;;3970592;29;20142;-59
2023/06/22 04:03:48;;;;;;;11.98;10.98;;;24.80;64.20;;;;;;3969623;29;20067;-59
2023/06/22 04:06:33;;;;;;;8.65;8.05;;;24.80;64.20;;;;;;3971119;29;20066;-59
2023/06/22 04:09:15;;;;;;;9.82;9.02;;;24.80;64.10;;;;;;3986494;29;20569;-59
2023/06/22 04:11:56;;;;;;;9.68;8.88;;;24.80;64.00;;;;;;3975782;29;20145;-59
2023/06/22 04:14:39;;;;;;;8.40;7.75;;;24.70;64.00;;;;;;3971276;29;20057;-60
2023/06/22 04:17:32;;;;;;;12.80;11.73;;;24.80;64.10;;;;;;3970802;29;20054;-60
2023/06/22 04:20:15;;;;;;;18.02;16.08;;;24.80;64.10;;;;;;3971154;29;20467;-59
2023/06/22 04:23:05;;;;;;;16.98;14.82;;;24.80;64.30;;;;;;3971526;29;20623;-60
2023/06/22 04:25:51;;;;;;;16.77;15.15;;;24.80;64.50;;;;;;3971571;29;20514;-59
2023/06/22 04:28:37;;;;;;;19.63;17.73;;;24.80;64.60;;;;;;3960204;29;20058;-60
2023/06/22 04:31:31;;;;;;;18.90;16.95;;;24.80;64.70;;;;;;3971267;29;20058;-61
2023/06/22 04:34:16;;;;;;;20.92;18.73;;;24.80;64.80;;;;;;3970959;29;20063;-59
2023/06/22 04:36:57;;;;;;;21.70;19.40;;;24.80;64.80;;;;;;3971559;29;20203;-59
2023/06/22 04:39:42;;;;;;;19.23;17.35;;;24.80;64.80;;;;;;3960499;29;20415;-59
2023/06/22 04:42:35;;;;;;;22.52;20.15;;;24.80;64.90;;;;;;3970842;29;20132;-60
2023/06/22 04:45:17;;;;;;;26.20;23.52;;;24.80;65.00;;;;;;3971409;29;20062;-60
2023/06/22 04:47:58;;;;;;;25.70;22.83;;;24.80;65.10;;;;;;3971246;29;20045;-60
2023/06/22 04:50:41;;;;;;;25.88;23.13;;;24.80;65.20;;;;;;3966281;29;20058;-60
2023/06/22 04:53:30;;;;;;;26.27;23.45;;;24.80;65.30;;;;;;3970883;29;20066;-60
2023/06/22 04:56:28;;;;;;;26.48;22.60;;;24.80;65.40;;;;;;3970872;29;20439;-59
2023/06/22 04:59:12;;;;;;;26.55;23.45;;;24.80;65.60;;;;;;3969945;29;20583;-61
2023/06/22 05:01:54;;;;;;;23.73;21.33;;;24.80;65.70;;;;;;3971382;29;20050;-61
2023/06/22 05:04:38;;;;;;;24.13;21.52;;;24.80;65.80;;;;;;3967517;29;20131;-60
2023/06/22 05:07:25;;;;;;;23.42;20.23;;;24.80;66.90;;;;;;3971200;29;20058;-60
2023/06/22 05:10:07;;;;;;;24.70;22.10;;;24.80;66.20;;;;;;3971089;29;20529;-60
2023/06/22 05:12:49;;;;;;;23.85;21.08;;;24.80;66.30;;;;;;3970734;29;20706;-59
2023/06/22 05:15:39;;;;;;;25.67;21.52;;;24.80;66.50;;;;;;3956176;29;20457;-61
2023/06/22 05:18:24;;;;;;;23.73;21.27;;;24.80;66.50;;;;;;3956560;29;20066;-61
2023/06/22 05:21:07;;;;;;;23.67;21.15;;;24.90;66.50;;;;;;3969370;29;20054;-60
2023/06/22 05:23:50;;;;;;;;;;;24.90;66.50;;;;;;3969456;29;20180;-60
2023/06/22 05:26:39;;;;;;;21.92;19.58;;;24.90;66.50;;;;;;3971129;29;20285;-60
2023/06/22 05:29:26;;;;;;;23.52;19.02;;;24.90;67.40;;;;;;3970656;29;20510;-62
2023/06/22 05:32:11;;;;;;;20.67;18.67;;;25.00;66.60;;;;;;3970060;29;20502;-59
2023/06/22 05:34:56;;;;;;;19.20;17.27;;;25.00;66.80;;;;;;3964653;29;20143;-59
2023/06/22 05:38:01;;;;;;;19.25;17.40;;;25.20;67.00;;;;;;3971074;29;20065;-59
2023/06/22 05:40:57;;;;;;;18.65;16.67;;;25.20;66.80;;;;;;3968315;29;20081;-59
2023/06/22 05:43:39;;;;;;;17.98;16.13;;;25.30;66.80;;;;;;3980338;29;20062;-59
2023/06/22 05:46:24;;;;;;;19.85;17.35;;;25.40;66.60;;;;;;3971064;29;20071;-60
2023/06/22 05:49:06;;;;;;;18.10;16.30;;;25.40;66.20;;;;;;3970563;29;20081;-58
2023/06/22 05:51:48;;;;;;;17.55;15.90;;;25.50;66.00;;;;;;3970909;29;20078;-58
2023/06/22 05:54:30;;;;;;;18.33;16.33;;;25.50;65.80;;;;;;3969423;29;20105;-58
2023/06/22 05:57:13;;;;;;;16.60;14.98;;;25.50;65.50;;;;;;3970615;29;20119;-58
2023/06/22 05:59:54;;;;;;;;;;;25.50;65.50;;;;;;3971019;29;20058;-56
2023/06/22 06:02:43;;;;;;;18.10;14.48;;;25.50;65.40;;;;;;3954687;29;19935;-59
2023/06/22 06:05:39;;;;;;;16.65;14.20;;;25.50;65.40;;;;;;3966520;29;20091;-50
2023/06/22 06:08:24;;;;;;;15.57;14.07;;;25.50;65.50;;;;;;3983976;29;20514;-50
2023/06/22 06:11:12;;;;;;;15.13;13.65;;;25.50;65.30;;;;;;3969571;29;20065;-51
2023/06/22 06:13:54;;;;;;;15.48;13.85;;;25.50;65.00;;;;;;3971001;29;20625;-51
2023/06/22 06:16:36;;;;;;;14.23;12.77;;;25.60;65.20;;;;;;3970311;29;20058;-52
2023/06/22 06:19:19;;;;;;;13.48;12.05;;;25.50;65.20;;;;;;3971146;29;20173;-51
2023/06/22 06:22:01;;;;;;;12.88;11.40;;;25.60;65.20;;;;;;3970206;29;20074;-52
2023/06/22 06:24:43;;;;;;;12.45;11.15;;;25.60;65.20;;;;;;3976462;29;20537;-51
2023/06/22 06:27:29;;;;;;;15.65;12.07;;;25.60;64.70;;;;;;3972134;29;20077;-51
2023/06/22 06:30:18;;;;;;;12.63;11.30;;;25.60;64.50;;;;;;3969610;29;20460;-52
2023/06/22 06:33:08;;;;;;;12.63;11.27;;;25.70;64.70;;;;;;3970171;29;20103;-54
2023/06/22 06:35:55;;;;;;;16.25;11.27;;;25.70;64.90;;;;;;3969960;29;20526;-51
2023/06/22 06:38:41;;;;;;;12.52;11.23;;;25.70;64.60;;;;;;3967971;29;20506;-51
2023/06/22 06:41:28;;;;;;;13.23;11.93;;;25.70;64.30;;;;;;3973576;29;20066;-52
2023/06/22 06:44:13;;;;;;;13.60;12.07;;;25.70;64.20;;;;;;3973413;29;20072;-48
2023/06/22 06:47:02;;;;;;;13.73;12.10;;;25.80;64.40;;;;;;3973394;29;20054;-50
2023/06/22 06:49:47;;;;;;;14.07;12.60;;;25.80;64.80;;;;;;3960407;29;20745;-49
2023/06/22 06:52:58;;;;;;;15.00;13.18;;;25.80;65.00;;;;;;3973640;29;20129;-49
2023/06/22 06:55:40;;;;;;;13.38;11.48;;;25.90;65.90;;;;;;3971919;29;20124;-48
2023/06/22 06:58:22;;;;;;;13.57;12.10;;;25.90;65.00;;;;;;3962173;29;20196;-50
2023/06/22 07:01:09;;;;;;;13.20;11.95;;;26.00;64.60;;;;;;3973040;29;20062;-49
2023/06/22 07:03:54;;;;;;;12.52;11.32;;;26.00;64.50;;;;;;3972289;29;20135;-49
2023/06/22 07:06:39;;;;;;;12.18;10.95;;;26.10;64.40;;;;;;3973221;29;20061;-47
2023/06/22 07:09:24;;;;;;;13.90;11.23;;;26.10;63.70;;;;;;3973740;29;20076;-48
2023/06/22 07:12:07;;;;;;;12.25;10.65;;;26.10;63.30;;;;;;3958161;29;20066;-48
2023/06/22 07:14:51;;;;;;;10.02;9.02;;;26.20;63.40;;;;;;3957959;29;20062;-49
2023/06/22 07:18:10;;;;;;;10.93;9.02;;;26.20;62.80;;;;;;3947145;29;20046;-48
2023/06/22 07:20:54;;;;;;;9.45;8.55;;;26.20;63.40;;;;;;3945668;29;20112;-51
2023/06/22 07:23:38;;;;;;;11.30;9.43;;;26.20;62.90;;;;;;3951254;29;20058;-48
2023/06/22 07:26:30;;;;;;;11.43;10.23;;;26.20;62.80;;;;;;3957854;29;20070;-53
2023/06/22 07:29:20;;;;;;;10.32;9.32;;;26.20;63.00;;;;;;3956276;29;20078;-51
2023/06/22 07:32:04;;;;;;;9.23;8.35;;;26.30;63.00;;;;;;3957302;29;20118;-51
2023/06/22 07:34:46;;;;;;;8.23;7.43;;;26.30;63.10;;;;;;3958148;29;20791;-49
2023/06/22 07:37:34;;;;;;;8.65;7.13;;;26.30;63.10;;;;;;3957585;29;20196;-50
2023/06/22 07:40:38;;;;;;;8.27;7.57;;;26.30;62.80;;;;;;3956752;30;20062;-52
2023/06/22 07:43:32;;;;;;;8.90;6.15;;;26.30;62.70;;;;;;3957419;30;20068;-49
2023/06/22 07:46:23;;;;;;;7.85;7.05;;;26.30;62.60;;;;;;3956388;30;20066;-58
2023/06/22 07:49:08;;;;;;;6.97;5.95;;;26.30;61.90;;;;;;3957438;29;20072;-51
2023/06/22 07:51:55;;;;;;;8.02;7.22;;;26.30;63.30;;;;;;3957449;29;20189;-50
2023/06/22 07:54:47;;;;;;;7.05;6.10;;;26.30;63.30;;;;;;3947350;29;20120;-49
2023/06/22 07:57:42;;;;;;;8.95;7.18;;;26.30;62.40;;;;;;3957739;29;20193;-48
2023/06/22 08:01:05;;;;;;;6.47;5.60;;;26.30;62.00;;;;;;3957003;29;20184;-49
2023/06/22 08:03:52;;;;;;;6.57;6.07;;;26.30;61.90;;;;;;3957383;29;20507;-53
2023/06/22 08:06:35;;;;;;;6.32;5.82;;;26.30;61.90;;;;;;3957758;29;20066;-53
2023/06/22 08:09:19;;;;;;;8.07;7.30;;;26.30;61.70;;;;;;3946587;30;20057;-49
2023/06/22 08:12:01;;;;;;;8.82;7.10;;;26.30;61.40;;;;;;3956263;29;20063;-53
2023/06/22 08:14:43;;;;;;;8.20;7.47;;;26.30;61.60;;;;;;3957080;30;20062;-48
2023/06/22 08:17:32;;;;;;;8.40;7.60;;;26.40;61.70;;;;;;3957082;29;20082;-50
2023/06/22 08:20:18;;;;;;;7.63;6.93;;;26.40;61.50;;;;;;3964190;29;20066;-51
2023/06/22 08:23:06;;;;;;;7.32;6.40;;;26.40;61.40;;;;;;3971263;29;20071;-50
2023/06/22 08:28:57;;;;;;;7.88;6.90;;;26.40;60.70;;;;;;3957521;29;20054;-48
2023/06/22 08:31:47;;;;;;;5.97;5.47;;;26.40;60.50;;;;;;3956466;29;20058;-47
2023/06/22 08:34:29;;;;;;;6.82;6.18;;;26.40;60.30;;;;;;3957289;29;20521;-53
2023/06/22 08:37:11;;;;;;;6.50;5.95;;;26.40;60.00;;;;;;3957538;29;20062;-50
2023/06/22 08:39:53;;;;;;;6.97;6.28;;;26.40;59.40;;;;;;3965707;29;20061;-54
2023/06/22 08:42:34;;;;;;;7.50;6.00;;;26.40;59.20;;;;;;3970961;29;20057;-50
2023/06/22 08:45:21;;;;;;;7.00;6.40;;;26.40;59.50;;;;;;3972007;29;20135;-51
2023/06/22 08:48:03;;;;;;;6.72;5.20;;;26.40;59.90;;;;;;3971859;29;20054;-49
2023/06/22 08:50:48;;;;;;;5.95;5.35;;;26.40;60.00;;;;;;3971564;29;20073;-53
2023/06/22 08:53:29;;;;;;;6.20;5.60;;;26.40;59.90;;;;;;3971700;29;20122;-50
2023/06/22 08:56:11;;;;;;;7.00;5.00;;;26.40;59.70;;;;;;3971313;29;20067;-49
2023/06/22 08:58:52;;;;;;;6.65;6.05;;;26.40;59.50;;;;;;3971888;29;20063;-51
2023/06/22 09:01:48;;;;;;;8.40;6.40;;;26.50;59.20;;;;;;3971725;29;20063;-48
2023/06/22 09:04:30;;;;;;;7.57;6.88;;;26.50;59.20;;;;;;3971412;29;20537;-63
2023/06/22 09:07:22;;;;;;;9.50;6.38;;;26.50;59.50;;;;;;3971794;29;20419;-51
2023/06/22 09:10:05;;;;;;;8.25;7.03;;;26.50;59.40;;;;;;3971787;29;20126;-53
2023/06/22 09:12:47;;;;;;;7.72;6.80;;;26.50;59.50;;;;;;3971782;29;20058;-52
2023/06/22 09:15:28;;;;;;;8.35;7.35;;;26.60;59.60;;;;;;3971424;29;20115;-52
2023/06/22 09:18:12;;;;;;;7.90;7.10;;;26.60;59.80;;;;;;3971457;29;20514;-50
2023/06/22 09:20:53;;;;;;;8.70;7.45;;;26.60;59.30;;;;;;3970917;29;20419;-53
2023/06/22 09:23:35;;;;;;;;;;;26.70;59.00;;;;;;3972111;29;20129;-53
2023/06/22 09:26:19;;;;;;;8.68;7.72;;;26.70;59.20;;;;;;3971231;29;20053;-54
2023/06/22 09:29:00;;;;;;;8.77;7.68;;;26.70;59.10;;;;;;3956543;29;20062;-54
2023/06/22 09:31:41;;;;;;;8.20;7.50;;;26.70;59.10;;;;;;3956330;29;20145;-52
2023/06/22 09:34:24;;;;;;;8.25;7.50;;;26.70;59.00;;;;;;3956784;29;20072;-49
2023/06/22 09:37:07;;;;;;;8.75;7.85;;;26.80;59.00;;;;;;3956385;29;20050;-51
2023/06/22 09:39:52;;;;;;;8.73;7.97;;;26.80;58.60;;;;;;3967741;29;20524;-49
2023/06/22 09:42:34;;;;;;;9.30;8.43;;;26.80;58.50;;;;;;3970927;29;20062;-49
2023/06/22 09:45:18;;;;;;;10.20;9.10;;;26.80;58.60;;;;;;3970609;29;20077;-50
2023/06/22 09:48:03;;;;;;;10.45;9.43;;;26.80;58.70;;;;;;3971065;29;20065;-52
2023/06/22 09:50:44;;;;;;;9.90;8.90;;;26.90;58.90;;;;;;3970247;29;20061;-54
2023/06/22 09:53:28;;;;;;;12.02;9.02;;;26.90;58.80;;;;;;3961773;29;20061;-50
2023/06/22 09:56:17;;;;;;;10.98;9.93;;;26.90;58.70;;;;;;3968433;29;20070;-48
2023/06/22 09:59:02;;;;;;;9.98;8.95;;;26.90;58.70;;;;;;3970710;29;20509;-55
2023/06/22 10:02:06;;;;;;;11.27;10.07;;;26.90;58.70;;;;;;3970351;29;20111;-54
2023/06/22 10:04:48;;;;;;;13.57;10.77;;;27.00;58.70;;;;;;3960111;29;20148;-54
2023/06/22 10:07:42;;;;;;;9.68;8.77;;;27.00;58.40;;;;;;3970222;29;20062;-54
2023/06/22 10:10:32;;;;;;;9.13;8.32;;;27.00;58.40;;;;;;3969364;29;20062;-53
2023/06/22 10:13:15;;;;;;;9.57;8.02;;;27.00;58.40;;;;;;3971489;29;20081;-54
2023/06/22 10:15:59;;;;;;;9.63;8.63;;;27.00;58.70;;;;;;3973800;29;20058;-54
2023/06/22 10:18:59;;;;;;;9.60;8.70;;;27.00;58.90;;;;;;3973193;29;20678;-54
2023/06/22 10:21:47;;;;;;;8.95;8.15;;;27.10;58.50;;;;;;3983023;29;20058;-55
2023/06/22 10:24:30;;;;;;;8.40;7.60;;;27.10;58.30;;;;;;3958539;29;20065;-55
2023/06/22 10:27:16;;;;;;;7.82;7.10;;;27.10;58.10;;;;;;3958602;29;20135;-47
2023/06/22 10:30:05;;;;;;;10.32;7.65;;;27.10;58.10;;;;;;3958574;29;20063;-46
2023/06/22 10:32:47;;;;;;;9.55;8.40;;;27.10;58.30;;;;;;3958954;29;20169;-51
2023/06/22 10:35:29;;;;;;;9.45;7.80;;;27.10;58.20;;;;;;3966200;29;20514;-53
2023/06/22 10:38:16;;;;;;;9.70;8.70;;;27.20;58.30;;;;;;3973363;29;20091;-49
2023/06/22 10:40:58;;;;;;;8.70;7.82;;;27.20;58.20;;;;;;3973635;29;20172;-49
2023/06/22 10:43:41;;;;;;;7.50;6.22;;;27.20;58.00;;;;;;3972745;29;20066;-51
2023/06/22 10:46:25;;;;;;;8.00;6.53;;;27.20;58.20;;;;;;3973575;29;20058;-52
2023/06/22 10:49:13;;;;;;;9.15;8.00;;;27.20;58.00;;;;;;3975155;29;20075;-51
2023/06/22 10:51:55;;;;;;;9.27;8.05;;;27.30;58.00;;;;;;3964159;29;20131;-47
2023/06/22 10:54:38;;;;;;;7.47;6.78;;;27.30;58.00;;;;;;3973693;29;20188;-50
2023/06/22 10:57:22;;;;;;;8.77;7.45;;;27.30;57.90;;;;;;3973700;29;20506;-49
2023/06/22 11:00:06;;;;;;;10.70;9.60;;;27.40;57.90;;;;;;3962357;29;20069;-50
2023/06/22 11:02:48;;;;;;;8.70;7.80;;;27.40;57.40;;;;;;3962570;29;20139;-52
2023/06/22 11:05:31;;;;;;;7.50;6.60;;;27.40;57.60;;;;;;3970895;29;20118;-54
2023/06/22 11:08:18;;;;;;;7.38;5.63;;;27.40;57.70;;;;;;3952457;29;20491;-51
2023/06/22 11:11:02;;;;;;;9.45;6.50;;;27.50;57.70;;;;;;3973102;29;20839;-51
2023/06/22 11:13:43;;;;;;;7.82;7.13;;;27.50;57.60;;;;;;3973474;29;20062;-47
2023/06/22 11:16:29;;;;;;;9.38;7.18;;;27.50;57.10;;;;;;3972685;29;20196;-49
2023/06/22 11:19:15;;;;;;;7.93;7.07;;;27.50;57.00;;;;;;3973052;29;20061;-53
2023/06/22 11:22:03;;;;;;;7.68;6.95;;;27.50;57.00;;;;;;3972906;29;20066;-50
2023/06/22 11:24:44;;;;;;;8.60;7.70;;;27.60;57.20;;;;;;3973493;29;20050;-53
2023/06/22 11:27:25;;;;;;;;;;;27.60;57.20;;;;;;3973602;29;20146;-49
2023/06/22 11:30:13;;;;;;;6.70;6.10;;;27.60;57.10;;;;;;3973503;29;20388;-51
2023/06/22 11:32:54;;;;;;;8.73;6.63;;;27.60;57.20;;;;;;3973024;29;20452;-51
2023/06/22 11:35:36;;;;;;;;;;;27.60;57.20;;;;;;3972414;29;20054;-53
2023/06/22 11:38:21;;;;;;;6.68;6.07;;;27.60;57.30;;;;;;3972104;29;19935;-52
2023/06/22 11:41:23;;;;;;;6.30;5.57;;;27.60;57.30;;;;;;3946029;30;20063;-54
2023/06/22 11:44:11;;;;;;;6.32;5.50;;;27.60;57.40;;;;;;3958183;29;20560;-54
2023/06/22 11:47:03;;;;;;;7.55;5.78;;;27.60;57.40;;;;;;3960565;29;20498;-53
2023/06/22 11:50:11;;;;;;;7.15;6.13;;;27.50;57.40;;;;;;3957349;30;20104;-49
2023/06/22 11:53:06;;;;;;;7.20;6.53;;;27.50;57.50;;;;;;3946279;30;20146;-47
2023/06/22 11:55:55;;;;;;;6.22;4.28;;;27.50;57.40;;;;;;3957955;30;20057;-51
2023/06/22 11:58:38;;;;;;;5.75;5.25;;;27.50;57.60;;;;;;3957452;29;20614;-51
2023/06/22 12:04:23;;;;;;;6.78;6.15;;;27.50;57.70;;;;;;3957060;30;20055;-49
2023/06/22 12:07:15;;;;;;;5.35;4.80;;;27.50;57.50;;;;;;3963857;29;20107;-51
2023/06/22 12:10:20;;;;;;;7.28;4.95;;;27.50;57.80;;;;;;3971825;29;20073;-54
2023/06/22 12:13:21;;;;;;;5.57;5.00;;;27.50;57.90;;;;;;3970565;29;20093;-54
2023/06/22 12:16:12;;;;;;;5.38;4.88;;;27.40;57.90;;;;;;3957216;30;20066;-53
2023/06/22 12:18:58;;;;;;;7.20;5.53;;;27.40;57.90;;;;;;3957292;30;20088;-54
2023/06/22 12:22:05;;;;;;;6.65;5.70;;;27.40;58.10;;;;;;3941600;30;20147;-53
2023/06/22 12:24:52;;;;;;;7.80;4.88;;;27.40;58.20;;;;;;3941146;30;20508;-50
2023/06/22 12:27:42;;;;;;;5.88;5.38;;;27.40;58.40;;;;;;3953691;29;20414;-49
2023/06/22 12:30:28;;;;;;;7.38;6.32;;;27.40;58.40;;;;;;3955432;29;20066;-53
2023/06/22 12:33:11;;;;;;;5.93;5.38;;;27.40;58.30;;;;;;3956947;30;20078;-54
2023/06/22 12:35:53;;;;;;;5.55;5.03;;;27.40;58.30;;;;;;3956544;29;20212;-50
2023/06/22 12:38:34;;;;;;;6.50;5.90;;;27.40;58.50;;;;;;3956587;30;20054;-48
2023/06/22 12:41:15;;;;;;;6.25;5.03;;;27.40;58.50;;;;;;3956747;29;20070;-54
2023/06/22 12:43:59;;;;;;;6.85;5.70;;;27.40;58.50;;;;;;3956667;30;20419;-51
2023/06/22 12:46:42;;;;;;;5.05;4.65;;;27.30;58.40;;;;;;3955933;30;20526;-52
2023/06/22 12:49:25;;;;;;;7.07;5.90;;;27.30;58.20;;;;;;3956829;30;20057;-51
2023/06/22 12:52:12;;;;;;;6.93;6.22;;;27.30;58.20;;;;;;3956272;30;20062;-50
2023/06/22 12:54:56;;;;;;;6.43;5.70;;;27.30;58.20;;;;;;3941599;30;20058;-54
2023/06/22 12:57:50;;;;;;;5.45;4.82;;;27.30;58.30;;;;;;3940999;30;20059;-52
2023/06/22 13:09:53;;;;;;;4.70;4.30;;;27.20;57.90;;;;;;3956132;29;20066;-53
2023/06/22 13:12:44;;;;;;;7.07;5.15;;;27.20;58.00;;;;;;3947976;30;20058;-52
2023/06/22 13:15:27;;;;;;;6.25;5.07;;;27.10;58.00;;;;;;3945136;30;20066;-51
2023/06/22 13:18:13;;;;;;;5.95;4.18;;;27.10;58.10;;;;;;3941453;30;20405;-47
2023/06/22 13:20:59;;;;;;;4.45;4.05;;;27.10;58.30;;;;;;3956339;29;20051;-53
2023/06/22 13:23:46;;;;;;;5.38;4.25;;;27.00;58.30;;;;;;3955823;29;20053;-52
2023/06/22 13:26:34;;;;;;;4.45;4.15;;;27.00;58.20;;;;;;3956459;29;20126;-48
2023/06/22 13:29:19;;;;;;;3.85;3.53;;;27.00;58.40;;;;;;3955940;29;20074;-46
2023/06/22 13:32:11;;;;;;;5.50;4.22;;;27.00;58.40;;;;;;3956326;29;20082;-51
2023/06/22 13:35:05;;;;;;;4.18;3.80;;;27.00;58.40;;;;;;3970303;29;20054;-50
2023/06/22 13:37:50;;;;;;;5.43;3.53;;;27.00;58.40;;;;;;3970830;29;20497;-52
2023/06/22 13:40:39;;;;;;;4.82;3.72;;;26.90;58.40;;;;;;3971465;29;20058;-47
2023/06/22 13:43:26;;;;;;;3.53;3.22;;;26.90;58.50;;;;;;3970690;29;20135;-50
2023/06/22 13:46:11;;;;;;;4.85;3.30;;;26.90;58.70;;;;;;3971322;29;20058;-49
2023/06/22 13:48:54;;;;;;;3.53;3.22;;;26.90;58.70;;;;;;3970444;29;20427;-49
2023/06/22 13:51:39;;;;;;;5.53;3.80;;;26.90;58.70;;;;;;3956171;29;20063;-52
2023/06/22 13:54:21;;;;;;;4.78;4.05;;;26.90;58.70;;;;;;3955986;29;20065;-49
2023/06/22 13:57:16;;;;;;;3.85;3.20;;;26.90;58.60;;;;;;3963343;29;20222;-50
2023/06/22 13:59:58;;;;;;;3.78;3.47;;;26.80;58.30;;;;;;3970376;29;20049;-50
2023/06/22 14:02:40;;;;;;;3.50;3.20;;;26.80;58.20;;;;;;3954796;29;20078;-52
2023/06/22 14:05:22;;;;;;;2.85;2.65;;;26.80;59.00;;;;;;3955607;29;20062;-48
2023/06/22 14:08:10;;;;;;;4.35;3.30;;;26.80;58.50;;;;;;3969695;29;20065;-57
2023/06/22 14:11:07;;;;;;;4.20;2.95;;;26.70;58.40;;;;;;3969405;29;20053;-54
2023/06/22 14:13:52;;;;;;;4.10;2.78;;;26.70;58.30;;;;;;3970528;29;20057;-53
2023/06/22 14:16:34;;;;;;;4.85;3.00;;;26.70;58.20;;;;;;3970031;29;20749;-52
2023/06/22 14:19:20;;;;;;;3.78;2.90;;;26.60;58.10;;;;;;3969823;29;20066;-49
2023/06/22 14:22:07;;;;;;;4.07;2.47;;;26.60;58.00;;;;;;3941775;29;20161;-56
2023/06/22 14:25:30;;;;;;;2.33;2.22;;;26.60;58.00;;;;;;3938774;29;20530;-51
2023/06/22 14:28:14;;;;;;;3.25;2.58;;;26.50;57.90;;;;;;3946393;29;20151;-51
2023/06/22 14:31:00;;;;;;;3.85;2.47;;;26.50;57.90;;;;;;3960151;29;20072;-53
2023/06/22 14:33:52;;;;;;;3.38;2.17;;;26.50;58.60;;;;;;3969556;29;20066;-48
2023/06/22 14:36:34;;;;;;;2.60;2.08;;;26.50;57.90;;;;;;3958802;29;20053;-52
2023/06/22 14:39:16;;;;;;;2.75;2.22;;;26.50;57.90;;;;;;3969802;29;20154;-52
2023/06/22 14:42:00;;;;;;;3.42;2.17;;;26.50;57.90;;;;;;3970648;29;20107;-53
2023/06/22 14:44:41;;;;;;;2.30;2.10;;;26.40;58.00;;;;;;3970331;29;20127;-48
2023/06/22 14:47:22;;;;;;;2.13;2.03;;;26.40;58.00;;;;;;3959198;29;20070;-54
2023/06/22 14:50:07;;;;;;;2.97;2.30;;;26.40;58.80;;;;;;3955430;29;20139;-54